createdAt,value
2024-01-30T00:00:36.417Z,97892.16
2024-01-30T00:03:24.389Z,97888.68
2024-01-30T00:05:53.312Z,97892.36
2024-01-30T00:08:22.120Z,97889.98
2024-01-30T00:10:50.217Z,97893.59
2024-01-30T00:13:20.527Z,97895.05
2024-01-30T00:15:49.652Z,97893.55
2024-01-30T00:18:17.702Z,97893.92
2024-01-30T00:20:45.728Z,97893.80
2024-01-30T00:23:14.454Z,97895.22
2024-01-30T00:25:42.525Z,97895.17
2024-01-30T00:28:10.607Z,97896.48
2024-01-30T00:30:38.796Z,97897.98
2024-01-30T00:33:06.871Z,97901.86
2024-01-30T00:35:34.944Z,97901.36
2024-01-30T00:38:03.023Z,97901.52
2024-01-30T00:40:30.983Z,97896.73
2024-01-30T00:42:59.037Z,97890.17
2024-01-30T00:45:27.167Z,97891.86
2024-01-30T00:47:55.231Z,97888.42
2024-01-30T00:50:23.363Z,97888.54
2024-01-30T00:52:51.487Z,97884.08
2024-01-30T00:55:19.969Z,97886.48
2024-01-30T00:57:48.496Z,97885.78
2024-01-30T01:00:19.280Z,97882.17
2024-01-30T01:02:47.524Z,97878.89
2024-01-30T01:05:15.815Z,97878.70
2024-01-30T01:07:44.153Z,97874.52
2024-01-30T01:10:14.863Z,97874.39
2024-01-30T01:12:43.338Z,97868.23
2024-01-30T01:15:11.690Z,97863.63
2024-01-30T01:17:40.312Z,97865.48
2024-01-30T01:20:09.199Z,97861.36
2024-01-30T01:22:37.273Z,97858.73
2024-01-30T01:25:08.344Z,97860.23
2024-01-30T01:27:41.721Z,97858.48
2024-01-30T01:30:15.682Z,97857.93
2024-01-30T01:32:50.297Z,97863.38
2024-01-30T01:35:18.449Z,97857.60
2024-01-30T01:37:46.383Z,97859.02
2024-01-30T01:40:14.454Z,97858.19
2024-01-30T01:42:42.403Z,97859.76
2024-01-30T01:45:10.716Z,97859.59
2024-01-30T01:47:39.386Z,97857.73
2024-01-30T01:50:07.740Z,97860.04
2024-01-30T01:52:36.154Z,97858.96
2024-01-30T01:55:04.433Z,97855.18
2024-01-30T01:57:33.082Z,97852.27
2024-01-30T02:00:02.998Z,97850.88
2024-01-30T02:02:37.964Z,97849.02
2024-01-30T02:05:06.860Z,97851.60
2024-01-30T02:07:35.371Z,97850.73
2024-01-30T02:10:05.043Z,97849.47
2024-01-30T02:12:33.162Z,97849.52
2024-01-30T02:15:01.215Z,97842.18
2024-01-30T02:17:29.288Z,97841.31
2024-01-30T02:19:57.412Z,97838.31
2024-01-30T02:22:25.617Z,97833.38
2024-01-30T02:24:53.582Z,97830.95
2024-01-30T02:27:21.576Z,97826.89
2024-01-30T02:29:49.524Z,97828.40
2024-01-30T02:32:17.486Z,97825.51
2024-01-30T02:34:45.541Z,97824.18
2024-01-30T02:37:13.590Z,97823.09
2024-01-30T02:39:41.607Z,97825.31
2024-01-30T02:42:09.552Z,97823.25
2024-01-30T02:44:37.586Z,97824.85
2024-01-30T02:47:05.727Z,97819.81
2024-01-30T02:49:33.841Z,97819.01
2024-01-30T02:52:02.094Z,97823.76
2024-01-30T02:54:31.977Z,97819.64
2024-01-30T02:57:00.048Z,97821.05
2024-01-30T02:59:28.203Z,97820.61
2024-01-30T03:01:56.279Z,97820.88
2024-01-30T03:04:24.592Z,97822.20
2024-01-30T03:06:52.853Z,97821.92
2024-01-30T03:09:20.873Z,97819.12
2024-01-30T03:11:48.904Z,97820.39
2024-01-30T03:14:17.065Z,97816.23
2024-01-30T03:16:45.032Z,97812.56
2024-01-30T03:19:13.184Z,97814.48
2024-01-30T03:21:41.390Z,97812.15
2024-01-30T03:24:10.217Z,97814.94
2024-01-30T03:26:38.224Z,97817.23
2024-01-30T03:29:06.598Z,97820.46
2024-01-30T03:31:35.432Z,97813.64
2024-01-30T03:34:04.191Z,97811.98
2024-01-30T03:36:34.190Z,97812.10
2024-01-30T03:39:02.507Z,97813.80
2024-01-30T03:41:30.744Z,97811.10
2024-01-30T03:43:59.374Z,97818.50
2024-01-30T03:46:27.414Z,97813.90
2024-01-30T03:48:55.449Z,97816.48
2024-01-30T03:51:23.449Z,97814.58
2024-01-30T03:53:51.465Z,97813.73
2024-01-30T03:56:19.595Z,97814.00
2024-01-30T03:58:47.603Z,97808.38
2024-01-30T04:01:16.230Z,97808.89
2024-01-30T04:03:45.637Z,97809.80
2024-01-30T04:06:13.941Z,97816.52
2024-01-30T04:08:41.903Z,97817.17
2024-01-30T04:11:09.891Z,97813.44
2024-01-30T04:13:38.022Z,97815.32
2024-01-30T04:16:06.659Z,97815.30
2024-01-30T04:18:35.293Z,97815.84
2024-01-30T04:21:03.404Z,97813.84
2024-01-30T04:23:31.417Z,97811.89
2024-01-30T04:25:59.744Z,97810.62
2024-01-30T04:28:27.780Z,97809.85
2024-01-30T04:30:55.783Z,97811.12
2024-01-30T04:33:24.160Z,97808.84
2024-01-30T04:35:53.101Z,97803.94
2024-01-30T04:38:21.117Z,97804.28
2024-01-30T04:40:49.195Z,97802.95
2024-01-30T04:43:17.226Z,97803.00
2024-01-30T04:45:45.362Z,97803.90
2024-01-30T04:55:24.332Z,97809.77
2024-01-30T04:57:52.447Z,97810.17
2024-01-30T05:00:20.522Z,97811.20
2024-01-30T05:02:48.419Z,97810.92
2024-01-30T05:05:17.825Z,97810.06
2024-01-30T05:07:45.907Z,97809.73
2024-01-30T05:10:14.089Z,97805.84
2024-01-30T05:12:42.402Z,97809.80
2024-01-30T05:15:10.738Z,97813.56
2024-01-30T05:17:38.720Z,97813.05
2024-01-30T05:20:07.474Z,97810.83
2024-01-30T05:22:35.536Z,97808.10
2024-01-30T05:25:03.852Z,97811.48
2024-01-30T05:27:31.920Z,97810.63
2024-01-30T05:30:00.011Z,97809.43
2024-01-30T05:32:28.159Z,97811.80
2024-01-30T05:34:56.505Z,97812.30
2024-01-30T05:37:24.574Z,97813.28
2024-01-30T05:39:52.680Z,97813.40
2024-01-30T05:42:20.633Z,97812.16
2024-01-30T05:44:48.709Z,97812.29
2024-01-30T05:47:16.869Z,97812.30
2024-01-30T05:49:44.983Z,97815.02
2024-01-30T05:52:13.058Z,97819.77
2024-01-30T05:54:41.082Z,97815.14
2024-01-30T05:57:09.081Z,97816.98
2024-01-30T05:59:40.753Z,97813.91
2024-01-30T06:02:11.836Z,97815.29
2024-01-30T06:04:40.226Z,97814.02
2024-01-30T06:07:09.140Z,97808.19
2024-01-30T06:09:37.364Z,97811.23
2024-01-30T06:12:06.714Z,97810.20
2024-01-30T06:14:34.734Z,97809.03
2024-01-30T06:17:02.750Z,97809.21
2024-01-30T06:19:30.876Z,97807.00
2024-01-30T06:21:59.242Z,97808.71
2024-01-30T06:24:28.931Z,97811.27
2024-01-30T06:26:57.249Z,97815.55
2024-01-30T06:29:26.020Z,97811.16
2024-01-30T06:31:53.980Z,97812.88
2024-01-30T06:34:22.947Z,97811.23
2024-01-30T06:36:51.037Z,97819.60
2024-01-30T06:39:19.413Z,97823.70
2024-01-30T06:41:47.998Z,97825.73
2024-01-30T06:44:16.176Z,97826.23
2024-01-30T06:46:44.219Z,97824.02
2024-01-30T06:49:12.250Z,97826.05
2024-01-30T06:51:40.317Z,97819.73
2024-01-30T06:54:08.279Z,97815.52
2024-01-30T06:56:36.820Z,97816.15
2024-01-30T06:59:05.045Z,97814.55
2024-01-30T07:01:33.818Z,97815.63
2024-01-30T07:04:02.027Z,97817.09
2024-01-30T07:06:30.275Z,97816.90
2024-01-30T07:08:58.381Z,97814.88
2024-01-30T07:11:26.552Z,97811.92
2024-01-30T07:13:55.071Z,97813.02
2024-01-30T07:16:24.507Z,97812.52
2024-01-30T07:18:52.805Z,97803.30
2024-01-30T07:21:22.942Z,97802.35
2024-01-30T07:23:51.022Z,97803.89
2024-01-30T07:26:18.969Z,97805.96
2024-01-30T07:28:47.145Z,97808.76
2024-01-30T07:31:15.208Z,97811.25
2024-01-30T07:33:43.225Z,97808.69
2024-01-30T07:36:11.786Z,97812.23
2024-01-30T07:38:39.861Z,97814.88
2024-01-30T07:41:08.229Z,97821.25
2024-01-30T07:43:36.980Z,97821.77
2024-01-30T07:46:05.571Z,97820.59
2024-01-30T07:48:35.385Z,97819.83
2024-01-30T07:51:05.194Z,97818.97
2024-01-30T07:53:33.299Z,97821.46
2024-01-30T07:56:01.596Z,97822.50
2024-01-30T07:58:29.690Z,97822.00
2024-01-30T08:00:59.993Z,97820.54
2024-01-30T08:03:28.398Z,97823.16
2024-01-30T08:05:57.203Z,97821.25
2024-01-30T08:08:25.326Z,97819.84
2024-01-30T08:10:53.482Z,97819.55
2024-01-30T08:13:21.563Z,97824.05
2024-01-30T08:15:49.539Z,97826.86
2024-01-30T08:18:17.704Z,97825.08
2024-01-30T08:20:45.776Z,97822.85
2024-01-30T08:23:13.776Z,97822.27
2024-01-30T08:25:41.829Z,97815.59
2024-01-30T08:28:09.904Z,97819.57
2024-01-30T08:30:40.188Z,97816.85
2024-01-30T08:33:09.101Z,97819.04
2024-01-30T08:35:37.419Z,97815.52
2024-01-30T08:38:05.508Z,97812.92
2024-01-30T08:40:33.604Z,97816.83
2024-01-30T08:43:02.177Z,97817.67
2024-01-30T08:45:30.222Z,97822.59
2024-01-30T08:47:58.436Z,97825.69
2024-01-30T08:50:26.863Z,97827.94
2024-01-30T08:52:54.935Z,97824.52
2024-01-30T08:55:23.039Z,97827.08
2024-01-30T08:57:51.237Z,97827.86
2024-01-30T09:00:19.272Z,97826.66
2024-01-30T09:02:47.316Z,97828.20
2024-01-30T09:05:18.326Z,97828.83
2024-01-30T09:07:47.354Z,97828.52
2024-01-30T09:10:17.730Z,97829.48
2024-01-30T09:12:47.996Z,97831.61
2024-01-30T09:15:16.125Z,97829.45
2024-01-30T09:17:44.268Z,97827.81
2024-01-30T09:20:12.800Z,97822.73
2024-01-30T09:22:40.887Z,97820.73
2024-01-30T09:25:09.133Z,97816.36
2024-01-30T09:27:37.287Z,97818.15
2024-01-30T09:30:05.973Z,97816.30
2024-01-30T09:32:34.165Z,97820.39
2024-01-30T09:35:23.228Z,97815.89
2024-01-30T09:37:52.708Z,97815.98
2024-01-30T09:40:21.682Z,97816.85
2024-01-30T09:42:51.880Z,97816.73
2024-01-30T09:45:20.817Z,97818.48
2024-01-30T09:47:49.196Z,97817.19
2024-01-30T09:50:17.997Z,97816.21
2024-01-30T09:52:47.321Z,97813.85
2024-01-30T09:55:15.530Z,97814.05
2024-01-30T09:57:44.089Z,97814.89
2024-01-30T10:00:13.034Z,97809.66
2024-01-30T10:02:41.773Z,97806.33
2024-01-30T10:05:10.739Z,97801.52
2024-01-30T10:07:39.321Z,97799.03
2024-01-30T10:10:08.145Z,97795.56
2024-01-30T10:12:36.463Z,97794.82
2024-01-30T10:15:09.286Z,97792.98
2024-01-30T10:17:39.024Z,97792.54
2024-01-30T10:20:09.278Z,97784.44
2024-01-30T10:22:37.624Z,97780.77
2024-01-30T10:25:06.922Z,97779.05
2024-01-30T10:27:35.273Z,97779.61
2024-01-30T10:30:05.423Z,97777.27
2024-01-30T10:32:34.201Z,97775.71
2024-01-30T10:35:02.554Z,97773.60
2024-01-30T10:37:33.304Z,97768.73
2024-01-30T10:40:05.800Z,97767.07
2024-01-30T10:42:34.096Z,97761.65
2024-01-30T10:45:09.862Z,97757.11
2024-01-30T10:47:38.999Z,97756.55
2024-01-30T10:50:10.119Z,97752.55
2024-01-30T10:52:39.187Z,97753.27
2024-01-30T10:55:08.524Z,97748.30
2024-01-30T10:57:37.805Z,97745.79
2024-01-30T11:00:14.173Z,97744.25
2024-01-30T11:02:47.232Z,97738.85
2024-01-30T11:05:18.628Z,97737.70
2024-01-30T11:07:47.717Z,97738.20
2024-01-30T11:10:16.835Z,97734.70
2024-01-30T11:12:47.800Z,97729.92
2024-01-30T11:15:18.332Z,97728.55
2024-01-30T11:17:46.472Z,97730.68
2024-01-30T11:20:22.101Z,97726.73
2024-01-30T11:22:54.607Z,97732.35
2024-01-30T11:25:24.316Z,97720.11
2024-01-30T11:27:56.790Z,97721.60
2024-01-30T11:30:27.180Z,97714.23
2024-01-30T11:33:02.456Z,97714.57
2024-01-30T11:35:37.269Z,97714.61
2024-01-30T11:38:07.002Z,97708.98
2024-01-30T11:40:36.176Z,97705.75
2024-01-30T11:43:06.451Z,97696.22
2024-01-30T11:45:36.065Z,97699.23
2024-01-30T11:48:06.064Z,97696.76
2024-01-30T11:50:35.832Z,97696.88
2024-01-30T11:53:05.605Z,97695.88
2024-01-30T11:55:35.855Z,97698.66
2024-01-30T11:58:05.407Z,97695.20
2024-01-30T12:00:34.934Z,97696.00
2024-01-30T12:03:05.019Z,97697.21
2024-01-30T12:05:33.838Z,97697.09
2024-01-30T12:08:03.025Z,97695.40
2024-01-30T12:10:32.123Z,97693.98
2024-01-30T12:13:02.886Z,97688.50
2024-01-30T12:15:31.885Z,97687.97
2024-01-30T12:18:07.772Z,97685.80
2024-01-30T12:20:36.356Z,97686.04
2024-01-30T12:23:05.060Z,97686.86
2024-01-30T12:25:33.874Z,97685.78
2024-01-30T12:28:02.196Z,97685.57
2024-01-30T12:30:31.015Z,97688.92
2024-01-30T12:32:59.476Z,97690.63
2024-01-30T12:35:30.972Z,97687.08
2024-01-30T12:38:01.411Z,97684.92
2024-01-30T12:40:30.091Z,97680.45
2024-01-30T12:42:58.714Z,97684.11
2024-01-30T12:45:26.953Z,97680.08
2024-01-30T12:47:55.687Z,97677.64
2024-01-30T12:50:24.053Z,97679.80
2024-01-30T12:52:52.271Z,97676.20
2024-01-30T12:55:20.344Z,97672.17
2024-01-30T12:57:49.180Z,97670.79
2024-01-30T13:00:18.787Z,97675.30
2024-01-30T13:02:48.396Z,97666.38
2024-01-30T13:05:16.832Z,97665.73
2024-01-30T13:07:45.291Z,97662.27
2024-01-30T13:10:14.258Z,97654.41
2024-01-30T13:12:43.195Z,97656.18
2024-01-30T13:15:12.467Z,97651.94
2024-01-30T13:17:40.775Z,97656.16
2024-01-30T13:20:11.914Z,97656.27
2024-01-30T13:22:41.165Z,97654.44
2024-01-30T13:25:09.896Z,97656.65
2024-01-30T13:27:39.630Z,97652.28
2024-01-30T13:30:12.110Z,97655.02
2024-01-30T13:32:42.233Z,97654.00
2024-01-30T13:35:10.615Z,97658.11
2024-01-30T13:37:38.949Z,97659.65
2024-01-30T13:40:13.514Z,97656.42
2024-01-30T13:42:42.459Z,97662.84
2024-01-30T13:45:11.621Z,97661.83
2024-01-30T13:47:40.405Z,97665.07
2024-01-30T13:50:09.785Z,97663.64
2024-01-30T13:52:43.950Z,97665.99
2024-01-30T13:55:14.161Z,97662.55
2024-01-30T13:57:42.882Z,97660.61
2024-01-30T14:00:15.097Z,97660.48
2024-01-30T14:02:43.519Z,97658.75
2024-01-30T14:05:12.309Z,97659.96
2024-01-30T14:07:41.757Z,97653.02
2024-01-30T14:10:14.262Z,97653.07
2024-01-30T14:12:49.070Z,97649.75
2024-01-30T14:15:27.955Z,97648.27
2024-01-30T14:17:58.178Z,97645.55
2024-01-30T14:20:27.692Z,97650.73
2024-01-30T14:22:57.439Z,97650.17
2024-01-30T14:25:26.314Z,97646.98
2024-01-30T14:27:54.852Z,97649.45
2024-01-30T14:30:23.006Z,97649.36
2024-01-30T14:32:51.612Z,97648.77
2024-01-30T14:35:20.861Z,97646.64
2024-01-30T14:37:49.474Z,97641.16
2024-01-30T14:40:19.305Z,97640.77
2024-01-30T14:42:47.679Z,97639.35
2024-01-30T14:45:15.919Z,97635.59
2024-01-30T14:47:44.527Z,97637.20
2024-01-30T14:50:12.730Z,97634.84
2024-01-30T14:52:41.784Z,97640.98
2024-01-30T14:55:10.598Z,97640.64
2024-01-30T14:57:39.502Z,97640.77
2024-01-30T15:00:08.419Z,97636.73
2024-01-30T15:02:36.779Z,97633.55
2024-01-30T15:05:06.980Z,97629.65
2024-01-30T15:07:39.940Z,97629.86
2024-01-30T15:10:10.895Z,97631.97
2024-01-30T15:12:39.654Z,97627.02
2024-01-30T15:15:09.454Z,97629.27
2024-01-30T15:17:38.414Z,97633.77
2024-01-30T15:20:08.409Z,97631.08
2024-01-30T15:22:36.756Z,97632.11
2024-01-30T15:25:06.717Z,97632.48
2024-01-30T15:27:35.085Z,97631.78
2024-01-30T15:30:03.962Z,97634.48
2024-01-30T15:32:32.059Z,97632.19
2024-01-30T15:35:02.343Z,97632.16
2024-01-30T15:37:30.877Z,97629.77
2024-01-30T15:39:59.003Z,97629.36
2024-01-30T15:42:27.215Z,97631.63
2024-01-30T15:44:55.316Z,97625.95
2024-01-30T15:47:23.256Z,97619.19
2024-01-30T15:49:51.553Z,97616.08
2024-01-30T15:52:19.738Z,97616.63
2024-01-30T15:54:48.612Z,97615.46
2024-01-30T15:57:16.774Z,97611.52
2024-01-30T15:59:44.906Z,97614.36
2024-01-30T16:02:13.134Z,97611.95
2024-01-30T16:04:41.644Z,97614.96
2024-01-30T16:07:09.762Z,97611.48
2024-01-30T16:09:37.874Z,97616.63
2024-01-30T16:12:06.196Z,97613.66
2024-01-30T16:14:35.036Z,97610.66
2024-01-30T16:17:03.239Z,97612.20
2024-01-30T16:19:31.510Z,97611.25
2024-01-30T16:22:00.264Z,97610.11
2024-01-30T16:24:28.751Z,97613.23
2024-01-30T16:26:58.042Z,97613.88
2024-01-30T16:29:26.148Z,97615.52
2024-01-30T16:31:54.139Z,97613.49
2024-01-30T16:34:22.426Z,97612.91
2024-01-30T16:36:50.788Z,97613.54
2024-01-30T16:39:18.971Z,97613.70
2024-01-30T16:41:47.101Z,97609.38
2024-01-30T16:44:15.585Z,97609.05
2024-01-30T16:46:43.641Z,97608.38
2024-01-30T16:49:12.174Z,97608.95
2024-01-30T16:51:40.259Z,97605.95
2024-01-30T16:54:08.275Z,97607.73
2024-01-30T16:56:36.319Z,97610.63
2024-01-30T16:59:04.534Z,97613.41
2024-01-30T17:01:32.764Z,97610.84
2024-01-30T17:04:00.986Z,97611.02
2024-01-30T17:06:29.132Z,97612.92
2024-01-30T17:09:08.457Z,97613.84
2024-01-30T17:11:36.570Z,97608.90
2024-01-30T17:14:04.666Z,97607.73
2024-01-30T17:16:33.003Z,97604.75
2024-01-30T17:19:01.186Z,97610.16
2024-01-30T17:21:29.556Z,97607.67
2024-01-30T17:23:57.614Z,97605.92
2024-01-30T17:26:26.166Z,97606.61
2024-01-30T17:28:54.385Z,97604.70
2024-01-30T17:31:22.425Z,97605.16
2024-01-30T17:33:52.115Z,97599.39
2024-01-30T17:36:20.220Z,97597.73
2024-01-30T17:38:48.364Z,97595.52
2024-01-30T17:41:16.474Z,97593.88
2024-01-30T17:43:45.204Z,97592.74
2024-01-30T17:46:13.502Z,97589.65
2024-01-30T17:48:42.150Z,97591.00
2024-01-30T17:51:10.846Z,97592.86
2024-01-30T17:53:38.976Z,97589.39
2024-01-30T17:56:07.391Z,97592.09
2024-01-30T17:58:35.694Z,97589.70
2024-01-30T18:01:04.568Z,97589.13
2024-01-30T18:03:32.706Z,97588.09
2024-01-30T18:06:03.683Z,97586.84
2024-01-30T18:08:33.979Z,97584.25
2024-01-30T18:11:02.296Z,97584.58
2024-01-30T18:13:30.416Z,97587.38
2024-01-30T18:15:58.548Z,97585.55
2024-01-30T18:18:31.425Z,97589.32
2024-01-30T18:21:00.370Z,97591.08
2024-01-30T18:23:28.452Z,97590.61
2024-01-30T18:26:01.312Z,97589.85
2024-01-30T18:28:30.516Z,97587.16
2024-01-30T18:30:59.165Z,97590.20
2024-01-30T18:33:28.736Z,97586.41
2024-01-30T18:35:57.078Z,97583.51
2024-01-30T18:38:25.436Z,97585.52
2024-01-30T18:40:53.834Z,97577.41
2024-01-30T18:43:22.028Z,97580.36
2024-01-30T18:45:55.951Z,97575.22
2024-01-30T18:48:24.033Z,97575.84
2024-01-30T18:50:52.776Z,97578.14
2024-01-30T18:53:20.816Z,97582.14
2024-01-30T18:55:49.197Z,97579.25
2024-01-30T18:58:17.362Z,97577.21
2024-01-30T19:00:48.454Z,97575.23
2024-01-30T19:03:19.081Z,97577.20
2024-01-30T19:05:48.342Z,97578.81
2024-01-30T19:08:17.538Z,97583.88
2024-01-30T19:10:50.692Z,97582.44
2024-01-30T19:13:19.956Z,97582.13
2024-01-30T19:15:48.517Z,97585.87
2024-01-30T19:18:16.897Z,97583.58
2024-01-30T19:20:45.201Z,97585.47
2024-01-30T19:23:13.404Z,97583.39
2024-01-30T19:25:43.458Z,97580.07
2024-01-30T19:28:13.607Z,97583.63
2024-01-30T19:30:41.879Z,97583.30
2024-01-30T19:33:10.365Z,97584.13
2024-01-30T19:35:38.471Z,97585.73
2024-01-30T19:38:06.587Z,97585.29
2024-01-30T19:40:34.717Z,97580.85
2024-01-30T19:43:02.813Z,97580.23
2024-01-30T19:45:30.904Z,97575.30
2024-01-30T19:47:58.969Z,97578.41
2024-01-30T19:50:27.229Z,97578.80
2024-01-30T19:52:55.691Z,97580.95
2024-01-30T19:55:26.858Z,97577.55
2024-01-30T19:57:55.241Z,97579.95
2024-01-30T20:00:24.129Z,97583.06
2024-01-30T20:02:52.525Z,97582.57
2024-01-30T20:05:21.008Z,97583.84
2024-01-30T20:07:49.320Z,97586.46
2024-01-30T20:10:17.823Z,97585.34
2024-01-30T20:12:45.944Z,97584.50
2024-01-30T20:15:16.119Z,97578.02
2024-01-30T20:17:45.441Z,97578.64
2024-01-30T20:20:18.098Z,97577.30
2024-01-30T20:22:50.186Z,97576.30
2024-01-30T20:25:19.986Z,97571.58
2024-01-30T20:27:48.947Z,97572.09
2024-01-30T20:30:18.316Z,97580.90
2024-01-30T20:32:46.981Z,97579.38
2024-01-30T20:35:15.627Z,97574.46
2024-01-30T20:37:44.114Z,97572.46
2024-01-30T20:40:12.606Z,97566.75
2024-01-30T20:42:40.648Z,97570.84
2024-01-30T20:45:09.309Z,97567.01
2024-01-30T20:47:37.499Z,97564.30
2024-01-30T20:50:07.024Z,97561.03
2024-01-30T20:52:36.295Z,97565.86
2024-01-30T20:55:05.478Z,97566.80
2024-01-30T20:57:33.797Z,97566.63
2024-01-30T21:00:01.897Z,97560.77
2024-01-30T21:02:30.068Z,97557.55
2024-01-30T21:04:58.125Z,97556.40
2024-01-30T21:07:26.422Z,97556.42
2024-01-30T21:09:55.185Z,97549.51
2024-01-30T21:12:23.425Z,97549.21
2024-01-30T21:14:52.452Z,97547.70
2024-01-30T21:17:23.534Z,97543.14
2024-01-30T21:19:51.656Z,97543.52
2024-01-30T21:22:19.814Z,97545.58
2024-01-30T21:24:47.797Z,97544.40
2024-01-30T21:27:15.771Z,97543.59
2024-01-30T21:29:44.840Z,97541.19
2024-01-30T21:32:14.011Z,97531.29
2024-01-30T21:34:42.603Z,97529.05
2024-01-30T21:37:10.725Z,97532.00
2024-01-30T21:39:39.059Z,97530.86
2024-01-30T21:42:07.150Z,97530.13
2024-01-30T21:44:35.175Z,97532.42
2024-01-30T21:47:04.588Z,97533.10
2024-01-30T21:49:32.736Z,97532.77
2024-01-30T21:52:06.427Z,97536.70
2024-01-30T21:54:35.427Z,97536.94
2024-01-30T21:57:03.918Z,97543.67
2024-01-30T21:59:32.781Z,97539.61
2024-01-30T22:02:01.119Z,97535.55
2024-01-30T22:04:29.314Z,97535.95
2024-01-30T22:06:57.912Z,97535.23
2024-01-30T22:09:26.232Z,97533.22
2024-01-30T22:11:54.261Z,97534.02
2024-01-30T22:14:22.240Z,97536.17
2024-01-30T22:16:50.367Z,97535.84
2024-01-30T22:19:18.774Z,97531.21
2024-01-30T22:21:46.818Z,97536.22
2024-01-30T22:24:15.162Z,97538.96
2024-01-30T22:26:44.155Z,97542.06
2024-01-30T22:29:12.210Z,97542.77
2024-01-30T22:31:40.336Z,97543.92
2024-01-30T22:34:08.557Z,97548.07
2024-01-30T22:36:36.530Z,97549.29
2024-01-30T22:39:09.954Z,97548.92
2024-01-30T22:41:38.170Z,97543.27
2024-01-30T22:44:06.621Z,97548.71
2024-01-30T22:46:34.718Z,97547.81
2024-01-30T22:49:02.940Z,97545.50
2024-01-30T22:51:31.071Z,97550.41
2024-01-30T22:53:59.122Z,97548.05
2024-01-30T22:56:27.280Z,97548.38
2024-01-30T22:58:55.558Z,97546.72
2024-01-30T23:01:25.694Z,97547.95
2024-01-30T23:03:55.940Z,97543.92
2024-01-30T23:06:28.360Z,97548.23
2024-01-30T23:09:11.630Z,97548.94
2024-01-30T23:11:39.801Z,97552.73
2024-01-30T23:14:10.691Z,97549.81
2024-01-30T23:16:40.296Z,97554.94
2024-01-30T23:19:08.933Z,97549.15
2024-01-30T23:21:39.670Z,97551.06
2024-01-30T23:24:07.903Z,97549.00
2024-01-30T23:26:42.733Z,97552.58
2024-01-30T23:29:10.693Z,97546.27
2024-01-30T23:31:44.367Z,97545.08
2024-01-30T23:34:13.308Z,97545.10
2024-01-30T23:36:45.105Z,97544.58
2024-01-30T23:39:14.296Z,97550.81
2024-01-30T23:41:42.489Z,97550.68
2024-01-30T23:44:10.416Z,97558.87
2024-01-30T23:46:38.456Z,97555.11
2024-01-30T23:49:06.658Z,97551.37
2024-01-30T23:51:34.839Z,97552.92
2024-01-30T23:54:02.814Z,97550.18
2024-01-30T23:56:30.917Z,97552.13
2024-01-30T23:58:59.001Z,97547.80
